sensor_id;sensor_type;location;lat;lon;timestamp;temperature;humidity
31653;DHT22;18261;53.648;9.910;2023-12-07T11:42:43;4.50;99.90
31653;DHT22;18261;53.648;9.910;2023-12-07T11:45:08;4.40;99.90
31653;DHT22;18261;53.648;9.910;2023-12-07T11:47:34;4.60;99.90
31653;DHT22;18261;53.648;9.910;2023-12-07T11:50:03;4.20;99.90
31653;DHT22;18261;53.648;9.910;2023-12-07T11:52:28;4.10;99.90
31653;DHT22;18261;53.648;9.910;2023-12-07T11:54:54;4.20;99.90
31653;DHT22;18261;53.648;9.910;2023-12-07T11:57:20;4.30;99.90
31653;DHT22;18261;53.648;9.910;2023-12-07T11:59:46;4.10;99.90
31653;DHT22;18261;53.648;9.910;2023-12-07T12:02:15;4.20;99.90
31653;DHT22;18261;53.648;9.910;2023-12-07T12:04:41;4.40;99.90
31653;DHT22;18261;53.648;9.910;2023-12-07T12:07:07;4.40;99.90
31653;DHT22;18261;53.648;9.910;2023-12-07T12:09:33;4.40;99.90
31653;DHT22;18261;53.648;9.910;2023-12-07T12:11:59;4.40;99.90
31653;DHT22;18261;53.648;9.910;2023-12-07T12:14:26;4.70;99.90
31653;DHT22;18261;53.648;9.910;2023-12-07T12:16:52;4.60;99.90
31653;DHT22;18261;53.648;9.910;2023-12-07T12:19:19;4.60;99.90
31653;DHT22;18261;53.648;9.910;2023-12-07T12:21:45;4.60;99.90
31653;DHT22;18261;53.648;9.910;2023-12-07T12:24:12;4.70;99.90
31653;DHT22;18261;53.648;9.910;2023-12-07T12:26:40;4.60;99.90
31653;DHT22;18261;53.648;9.910;2023-12-07T12:29:07;4.70;99.90
31653;DHT22;18261;53.648;9.910;2023-12-07T12:31:34;4.70;99.90
31653;DHT22;18261;53.648;9.910;2023-12-07T12:34:05;4.50;99.90
31653;DHT22;18261;53.648;9.910;2023-12-07T12:36:31;4.50;99.90
31653;DHT22;18261;53.648;9.910;2023-12-07T12:38:57;4.70;99.90
31653;DHT22;18261;53.648;9.910;2023-12-07T12:41:23;4.60;99.90
31653;DHT22;18261;53.648;9.910;2023-12-07T12:43:49;4.60;99.90
31653;DHT22;18261;53.648;9.910;2023-12-07T12:46:15;4.60;99.90
31653;DHT22;18261;53.648;9.910;2023-12-07T12:48:56;4.90;99.90
31653;DHT22;18261;53.648;9.910;2023-12-07T12:51:24;4.60;99.90
31653;DHT22;18261;53.648;9.910;2023-12-07T12:53:51;4.70;99.90
31653;DHT22;18261;53.648;9.910;2023-12-07T12:56:19;4.70;99.90
31653;DHT22;18261;53.648;9.910;2023-12-07T12:58:45;4.60;99.90
31653;DHT22;18261;53.648;9.910;2023-12-07T13:01:11;4.80;99.90
31653;DHT22;18261;53.648;9.910;2023-12-07T13:03:37;5.30;99.90
31653;DHT22;18261;53.648;9.910;2023-12-07T13:06:03;4.60;99.90
31653;DHT22;18261;53.648;9.910;2023-12-07T13:08:29;4.50;99.90
31653;DHT22;18261;53.648;9.910;2023-12-07T13:10:54;4.70;99.90
31653;DHT22;18261;53.648;9.910;2023-12-07T13:13:20;4.60;99.90
31653;DHT22;18261;53.648;9.910;2023-12-07T13:15:46;4.60;99.90
31653;DHT22;18261;53.648;9.910;2023-12-07T13:18:11;4.60;99.90
31653;DHT22;18261;53.648;9.910;2023-12-07T13:20:38;4.60;99.90
31653;DHT22;18261;53.648;9.910;2023-12-07T13:23:04;4.80;99.90
31653;DHT22;18261;53.648;9.910;2023-12-07T13:25:30;4.70;99.90
31653;DHT22;18261;53.648;9.910;2023-12-07T13:27:55;4.60;99.90
31653;DHT22;18261;53.648;9.910;2023-12-07T13:30:21;4.80;99.90
31653;DHT22;18261;53.648;9.910;2023-12-07T13:32:47;4.70;99.90
31653;DHT22;18261;53.648;9.910;2023-12-07T13:35:13;4.80;99.90
31653;DHT22;18261;53.648;9.910;2023-12-07T13:37:39;4.80;99.90
31653;DHT22;18261;53.648;9.910;2023-12-07T13:40:05;4.70;99.90
31653;DHT22;18261;53.648;9.910;2023-12-07T13:42:35;4.70;99.90
31653;DHT22;18261;53.648;9.910;2023-12-07T13:45:02;5.00;99.90
31653;DHT22;18261;53.648;9.910;2023-12-07T13:47:28;4.60;99.90
31653;DHT22;18261;53.648;9.910;2023-12-07T13:50:00;4.50;99.90
31653;DHT22;18261;53.648;9.910;2023-12-07T13:52:26;4.60;99.90
31653;DHT22;18261;53.648;9.910;2023-12-07T13:54:54;4.70;99.90
31653;DHT22;18261;53.648;9.910;2023-12-07T13:57:23;5.40;99.90
31653;DHT22;18261;53.648;9.910;2023-12-07T13:59:52;4.50;99.90
31653;DHT22;18261;53.648;9.910;2023-12-07T14:02:19;4.60;99.90
31653;DHT22;18261;53.648;9.910;2023-12-07T14:04:48;4.70;99.90
31653;DHT22;18261;53.648;9.910;2023-12-07T14:07:18;4.60;99.90
31653;DHT22;18261;53.648;9.910;2023-12-07T14:09:45;4.70;99.90
31653;DHT22;18261;53.648;9.910;2023-12-07T14:12:13;4.80;99.90
31653;DHT22;18261;53.648;9.910;2023-12-07T14:14:43;4.50;99.90
31653;DHT22;18261;53.648;9.910;2023-12-07T14:17:10;4.50;99.90
31653;DHT22;18261;53.648;9.910;2023-12-07T14:19:35;4.50;99.90
31653;DHT22;18261;53.648;9.910;2023-12-07T14:22:01;4.70;99.90
31653;DHT22;18261;53.648;9.910;2023-12-07T14:24:27;4.50;99.90
31653;DHT22;18261;53.648;9.910;2023-12-07T14:26:54;4.70;99.90
31653;DHT22;18261;53.648;9.910;2023-12-07T14:29:20;4.50;99.90
31653;DHT22;18261;53.648;9.910;2023-12-07T14:31:48;4.60;99.90
31653;DHT22;18261;53.648;9.910;2023-12-07T14:34:14;4.40;99.90
31653;DHT22;18261;53.648;9.910;2023-12-07T14:36:41;4.40;99.90
31653;DHT22;18261;53.648;9.910;2023-12-07T14:39:13;4.30;99.90
31653;DHT22;18261;53.648;9.910;2023-12-07T14:41:46;4.40;99.90
31653;DHT22;18261;53.648;9.910;2023-12-07T14:44:16;4.30;99.90
31653;DHT22;18261;53.648;9.910;2023-12-07T14:46:43;4.30;99.90
31653;DHT22;18261;53.648;9.910;2023-12-07T14:49:09;4.30;99.90
31653;DHT22;18261;53.648;9.910;2023-12-07T14:51:35;4.30;99.90
31653;DHT22;18261;53.648;9.910;2023-12-07T14:54:01;4.20;99.90
31653;DHT22;18261;53.648;9.910;2023-12-07T14:56:26;4.20;99.90
31653;DHT22;18261;53.648;9.910;2023-12-07T14:58:52;4.20;99.90
31653;DHT22;18261;53.648;9.910;2023-12-07T15:01:17;4.20;99.90
31653;DHT22;18261;53.648;9.910;2023-12-07T15:03:43;4.30;99.90
31653;DHT22;18261;53.648;9.910;2023-12-07T15:06:10;4.40;99.90
31653;DHT22;18261;53.648;9.910;2023-12-07T15:08:36;4.30;99.90
31653;DHT22;18261;53.648;9.910;2023-12-07T15:11:02;4.30;99.90
31653;DHT22;18261;53.648;9.910;2023-12-07T15:13:29;4.20;99.90
31653;DHT22;18261;53.648;9.910;2023-12-07T15:15:55;4.20;99.90
31653;DHT22;18261;53.648;9.910;2023-12-07T15:18:20;4.20;99.90
31653;DHT22;18261;53.648;9.910;2023-12-07T15:20:46;4.20;99.90
31653;DHT22;18261;53.648;9.910;2023-12-07T15:23:11;4.20;99.90
31653;DHT22;18261;53.648;9.910;2023-12-07T15:25:37;4.20;99.90
31653;DHT22;18261;53.648;9.910;2023-12-07T15:28:02;4.20;99.90
31653;DHT22;18261;53.648;9.910;2023-12-07T15:30:28;4.10;99.90
31653;DHT22;18261;53.648;9.910;2023-12-07T15:32:55;4.00;99.90
31653;DHT22;18261;53.648;9.910;2023-12-07T15:35:20;4.00;99.90
31653;DHT22;18261;53.648;9.910;2023-12-07T15:37:46;4.30;99.90
31653;DHT22;18261;53.648;9.910;2023-12-07T15:40:12;4.10;99.90
31653;DHT22;18261;53.648;9.910;2023-12-07T15:42:38;4.20;99.90
31653;DHT22;18261;53.648;9.910;2023-12-07T15:45:06;4.20;99.90
31653;DHT22;18261;53.648;9.910;2023-12-07T15:47:32;4.10;99.90
31653;DHT22;18261;53.648;9.910;2023-12-07T15:49:58;4.10;99.90
31653;DHT22;18261;53.648;9.910;2023-12-07T15:52:24;4.20;99.90
31653;DHT22;18261;53.648;9.910;2023-12-07T15:54:49;4.30;99.90
31653;DHT22;18261;53.648;9.910;2023-12-07T15:57:15;4.30;99.90
31653;DHT22;18261;53.648;9.910;2023-12-07T15:59:41;4.40;99.90
31653;DHT22;18261;53.648;9.910;2023-12-07T16:02:08;4.40;99.90
31653;DHT22;18261;53.648;9.910;2023-12-07T16:04:34;4.00;99.90
31653;DHT22;18261;53.648;9.910;2023-12-07T16:07:00;4.00;99.90
31653;DHT22;18261;53.648;9.910;2023-12-07T16:09:27;4.10;99.90
31653;DHT22;18261;53.648;9.910;2023-12-07T16:11:53;4.20;99.90
31653;DHT22;18261;53.648;9.910;2023-12-07T16:14:19;4.10;99.90
31653;DHT22;18261;53.648;9.910;2023-12-07T16:16:45;4.10;99.90
31653;DHT22;18261;53.648;9.910;2023-12-07T16:19:10;4.30;99.90
31653;DHT22;18261;53.648;9.910;2023-12-07T16:21:36;4.10;99.90
31653;DHT22;18261;53.648;9.910;2023-12-07T16:24:03;4.10;99.90
31653;DHT22;18261;53.648;9.910;2023-12-07T16:26:28;4.10;99.90
31653;DHT22;18261;53.648;9.910;2023-12-07T16:28:54;4.00;99.90
31653;DHT22;18261;53.648;9.910;2023-12-07T16:31:19;4.10;99.90
31653;DHT22;18261;53.648;9.910;2023-12-07T16:33:45;4.00;99.90
31653;DHT22;18261;53.648;9.910;2023-12-07T16:36:17;4.00;99.90
31653;DHT22;18261;53.648;9.910;2023-12-07T16:38:43;4.00;99.90
31653;DHT22;18261;53.648;9.910;2023-12-07T16:41:09;4.40;99.90
31653;DHT22;18261;53.648;9.910;2023-12-07T16:43:35;4.00;99.90
31653;DHT22;18261;53.648;9.910;2023-12-07T16:46:01;3.90;99.90
31653;DHT22;18261;53.648;9.910;2023-12-07T16:48:33;4.30;99.90
31653;DHT22;18261;53.648;9.910;2023-12-07T16:50:58;4.00;99.90
31653;DHT22;18261;53.648;9.910;2023-12-07T16:53:24;4.20;99.90
31653;DHT22;18261;53.648;9.910;2023-12-07T16:55:50;4.00;99.90
31653;DHT22;18261;53.648;9.910;2023-12-07T16:58:15;4.20;99.90
31653;DHT22;18261;53.648;9.910;2023-12-07T17:00:41;3.90;99.90
31653;DHT22;18261;53.648;9.910;2023-12-07T17:03:07;4.00;99.90
31653;DHT22;18261;53.648;9.910;2023-12-07T17:05:33;3.90;99.90
31653;DHT22;18261;53.648;9.910;2023-12-07T17:07:59;3.90;99.90
31653;DHT22;18261;53.648;9.910;2023-12-07T17:10:25;3.90;99.90
31653;DHT22;18261;53.648;9.910;2023-12-07T17:12:50;4.70;99.90
31653;DHT22;18261;53.648;9.910;2023-12-07T17:15:16;3.90;99.90
31653;DHT22;18261;53.648;9.910;2023-12-07T17:17:42;3.90;99.90
31653;DHT22;18261;53.648;9.910;2023-12-07T17:20:08;4.00;99.90
31653;DHT22;18261;53.648;9.910;2023-12-07T17:22:34;3.90;99.90
31653;DHT22;18261;53.648;9.910;2023-12-07T17:25:01;3.90;99.90
31653;DHT22;18261;53.648;9.910;2023-12-07T17:27:27;3.90;99.90
31653;DHT22;18261;53.648;9.910;2023-12-07T17:29:53;4.20;99.90
31653;DHT22;18261;53.648;9.910;2023-12-07T17:32:18;3.90;99.90
31653;DHT22;18261;53.648;9.910;2023-12-07T17:34:44;3.90;99.90
31653;DHT22;18261;53.648;9.910;2023-12-07T17:37:10;3.80;99.90
31653;DHT22;18261;53.648;9.910;2023-12-07T17:39:35;3.90;99.90
31653;DHT22;18261;53.648;9.910;2023-12-07T17:42:01;3.90;99.90
31653;DHT22;18261;53.648;9.910;2023-12-07T17:44:27;3.90;99.90
31653;DHT22;18261;53.648;9.910;2023-12-07T17:46:53;3.90;99.90
31653;DHT22;18261;53.648;9.910;2023-12-07T17:49:18;3.80;99.90
31653;DHT22;18261;53.648;9.910;2023-12-07T17:51:44;3.90;99.90
31653;DHT22;18261;53.648;9.910;2023-12-07T17:54:09;3.80;99.90
31653;DHT22;18261;53.648;9.910;2023-12-07T17:56:39;3.80;99.90
31653;DHT22;18261;53.648;9.910;2023-12-07T17:59:05;3.80;99.90
31653;DHT22;18261;53.648;9.910;2023-12-07T18:01:31;3.70;99.90
31653;DHT22;18261;53.648;9.910;2023-12-07T18:03:57;3.80;99.90
31653;DHT22;18261;53.648;9.910;2023-12-07T18:06:22;3.80;99.90
31653;DHT22;18261;53.648;9.910;2023-12-07T18:08:48;3.80;99.90
31653;DHT22;18261;53.648;9.910;2023-12-07T18:11:20;3.70;99.90
31653;DHT22;18261;53.648;9.910;2023-12-07T18:13:47;3.80;99.90
31653;DHT22;18261;53.648;9.910;2023-12-07T18:16:13;3.60;99.90
31653;DHT22;18261;53.648;9.910;2023-12-07T18:18:39;3.70;99.90
31653;DHT22;18261;53.648;9.910;2023-12-07T18:21:05;3.70;99.90
31653;DHT22;18261;53.648;9.910;2023-12-07T18:23:31;3.70;99.90
31653;DHT22;18261;53.648;9.910;2023-12-07T18:25:57;3.70;99.90
31653;DHT22;18261;53.648;9.910;2023-12-07T18:28:22;3.60;99.90
31653;DHT22;18261;53.648;9.910;2023-12-07T18:30:48;3.70;99.90
31653;DHT22;18261;53.648;9.910;2023-12-07T18:33:14;3.60;99.90
31653;DHT22;18261;53.648;9.910;2023-12-07T18:35:39;3.60;99.90
31653;DHT22;18261;53.648;9.910;2023-12-07T18:38:05;3.50;99.90
31653;DHT22;18261;53.648;9.910;2023-12-07T18:40:33;3.90;99.90
31653;DHT22;18261;53.648;9.910;2023-12-07T18:42:59;3.50;99.90
31653;DHT22;18261;53.648;9.910;2023-12-07T18:45:25;3.40;99.90
31653;DHT22;18261;53.648;9.910;2023-12-07T18:47:51;3.40;99.90
31653;DHT22;18261;53.648;9.910;2023-12-07T18:50:17;3.60;99.90
31653;DHT22;18261;53.648;9.910;2023-12-07T18:52:42;3.40;99.90
31653;DHT22;18261;53.648;9.910;2023-12-07T18:55:08;3.30;99.90
31653;DHT22;18261;53.648;9.910;2023-12-07T18:57:34;3.40;99.90
31653;DHT22;18261;53.648;9.910;2023-12-07T18:59:59;3.30;99.90
31653;DHT22;18261;53.648;9.910;2023-12-07T19:02:25;3.20;99.90
31653;DHT22;18261;53.648;9.910;2023-12-07T19:04:50;3.20;99.90
31653;DHT22;18261;53.648;9.910;2023-12-07T19:07:16;3.30;99.90
31653;DHT22;18261;53.648;9.910;2023-12-07T19:09:42;3.30;99.90
31653;DHT22;18261;53.648;9.910;2023-12-07T19:12:08;3.60;99.90
31653;DHT22;18261;53.648;9.910;2023-12-07T19:14:34;3.40;99.90
31653;DHT22;18261;53.648;9.910;2023-12-07T19:17:00;3.30;99.90
31653;DHT22;18261;53.648;9.910;2023-12-07T19:19:26;3.30;99.90
31653;DHT22;18261;53.648;9.910;2023-12-07T19:21:51;3.30;99.90
31653;DHT22;18261;53.648;9.910;2023-12-07T19:24:17;3.40;99.90
31653;DHT22;18261;53.648;9.910;2023-12-07T19:26:42;3.20;99.90
31653;DHT22;18261;53.648;9.910;2023-12-07T19:29:08;3.40;99.90
31653;DHT22;18261;53.648;9.910;2023-12-07T19:31:37;3.30;99.90
31653;DHT22;18261;53.648;9.910;2023-12-07T19:34:04;3.30;99.90
31653;DHT22;18261;53.648;9.910;2023-12-07T19:36:30;3.20;99.90
31653;DHT22;18261;53.648;9.910;2023-12-07T19:38:56;3.20;99.90
31653;DHT22;18261;53.648;9.910;2023-12-07T19:41:21;3.20;99.90
31653;DHT22;18261;53.648;9.910;2023-12-07T19:43:47;3.10;99.90
31653;DHT22;18261;53.648;9.910;2023-12-07T19:46:18;3.20;99.90
31653;DHT22;18261;53.648;9.910;2023-12-07T19:48:44;3.10;99.90
31653;DHT22;18261;53.648;9.910;2023-12-07T19:51:10;3.20;99.90
31653;DHT22;18261;53.648;9.910;2023-12-07T19:53:35;3.10;99.90
31653;DHT22;18261;53.648;9.910;2023-12-07T19:56:01;3.20;99.90
31653;DHT22;18261;53.648;9.910;2023-12-07T19:58:27;3.10;99.90
31653;DHT22;18261;53.648;9.910;2023-12-07T20:00:53;3.20;99.90
31653;DHT22;18261;53.648;9.910;2023-12-07T20:03:18;3.20;99.90
31653;DHT22;18261;53.648;9.910;2023-12-07T20:05:44;3.10;99.90
31653;DHT22;18261;53.648;9.910;2023-12-07T20:08:09;3.10;99.90
31653;DHT22;18261;53.648;9.910;2023-12-07T20:10:36;3.20;99.90
31653;DHT22;18261;53.648;9.910;2023-12-07T20:13:02;3.20;99.90
31653;DHT22;18261;53.648;9.910;2023-12-07T20:15:28;3.20;99.90
31653;DHT22;18261;53.648;9.910;2023-12-07T20:17:54;3.10;99.90
31653;DHT22;18261;53.648;9.910;2023-12-07T20:20:19;3.20;99.90
31653;DHT22;18261;53.648;9.910;2023-12-07T20:22:45;3.20;99.90
31653;DHT22;18261;53.648;9.910;2023-12-07T20:25:10;3.10;99.90
31653;DHT22;18261;53.648;9.910;2023-12-07T20:27:36;3.10;99.90
31653;DHT22;18261;53.648;9.910;2023-12-07T20:30:01;3.60;99.90
31653;DHT22;18261;53.648;9.910;2023-12-07T20:32:27;3.60;99.90
31653;DHT22;18261;53.648;9.910;2023-12-07T20:34:53;3.20;99.90
31653;DHT22;18261;53.648;9.910;2023-12-07T20:37:18;3.20;99.90
31653;DHT22;18261;53.648;9.910;2023-12-07T20:39:45;3.40;99.90
31653;DHT22;18261;53.648;9.910;2023-12-07T20:42:10;3.20;99.90
31653;DHT22;18261;53.648;9.910;2023-12-07T20:44:36;3.30;99.90
31653;DHT22;18261;53.648;9.910;2023-12-07T20:47:02;3.20;99.90
31653;DHT22;18261;53.648;9.910;2023-12-07T20:49:28;3.10;99.90
31653;DHT22;18261;53.648;9.910;2023-12-07T20:51:53;3.20;99.90
31653;DHT22;18261;53.648;9.910;2023-12-07T20:54:19;3.30;99.90
31653;DHT22;18261;53.648;9.910;2023-12-07T20:56:44;3.20;99.90
31653;DHT22;18261;53.648;9.910;2023-12-07T20:59:10;3.10;99.90
31653;DHT22;18261;53.648;9.910;2023-12-07T21:01:36;3.10;99.90
31653;DHT22;18261;53.648;9.910;2023-12-07T21:04:02;3.20;99.90
31653;DHT22;18261;53.648;9.910;2023-12-07T21:06:28;3.20;99.90
31653;DHT22;18261;53.648;9.910;2023-12-07T21:08:54;3.30;99.90
31653;DHT22;18261;53.648;9.910;2023-12-07T21:11:20;3.20;99.90
31653;DHT22;18261;53.648;9.910;2023-12-07T21:13:45;3.20;99.90
31653;DHT22;18261;53.648;9.910;2023-12-07T21:16:11;3.20;99.90
31653;DHT22;18261;53.648;9.910;2023-12-07T21:18:37;3.10;99.90
31653;DHT22;18261;53.648;9.910;2023-12-07T21:21:02;3.10;99.90
31653;DHT22;18261;53.648;9.910;2023-12-07T21:23:28;3.20;99.90
31653;DHT22;18261;53.648;9.910;2023-12-07T21:25:53;3.00;99.90
31653;DHT22;18261;53.648;9.910;2023-12-07T21:28:19;3.00;99.90
31653;DHT22;18261;53.648;9.910;2023-12-07T21:30:44;3.10;99.90
31653;DHT22;18261;53.648;9.910;2023-12-07T21:33:10;3.00;99.90
31653;DHT22;18261;53.648;9.910;2023-12-07T21:35:36;3.20;99.90
31653;DHT22;18261;53.648;9.910;2023-12-07T21:38:01;3.10;99.90
31653;DHT22;18261;53.648;9.910;2023-12-07T21:40:27;3.40;99.90
31653;DHT22;18261;53.648;9.910;2023-12-07T21:42:53;3.00;99.90
31653;DHT22;18261;53.648;9.910;2023-12-07T21:45:18;3.00;99.90
31653;DHT22;18261;53.648;9.910;2023-12-07T21:47:44;3.00;99.90
31653;DHT22;18261;53.648;9.910;2023-12-07T21:50:10;3.30;99.90
31653;DHT22;18261;53.648;9.910;2023-12-07T21:52:36;3.20;99.90
31653;DHT22;18261;53.648;9.910;2023-12-07T21:55:01;3.10;99.90
31653;DHT22;18261;53.648;9.910;2023-12-07T21:57:27;3.00;99.90
31653;DHT22;18261;53.648;9.910;2023-12-07T21:59:52;3.10;99.90
31653;DHT22;18261;53.648;9.910;2023-12-07T22:02:18;3.00;99.90
